Time;durP1;ratioP1;P1;durP2;ratioP2;P2;SDS_P1;SDS_P2;PMS_P1;PMS_P2;Temp;Humidity;BMP_temperature;BMP_pressure;BME280_temperature;BME280_humidity;BME280_pressure;Samples;Min_cycle;Max_cycle;Signal;HPM_P1;HPM_P2
2021/08/08 00:01:23;;;;;;;5.72;2.42;;;28.00;37.90;;;;;;4359630;32;20549;-36
2021/08/08 00:03:49;;;;;;;4.28;2.33;;;27.90;37.80;;;;;;4360109;32;20065;-38
2021/08/08 00:06:15;;;;;;;2.85;2.33;;;27.80;38.20;;;;;;4360189;32;20083;-37
2021/08/08 00:08:42;;;;;;;4.28;2.90;;;27.60;38.70;;;;;;4359901;32;20085;-38
2021/08/08 00:11:08;;;;;;;4.90;2.50;;;27.40;38.90;;;;;;4358637;32;20170;-38
2021/08/08 00:13:36;;;;;;;6.15;3.30;;;27.30;39.10;;;;;;4360116;32;20614;-37
2021/08/08 00:16:03;;;;;;;4.70;2.42;;;27.20;39.50;;;;;;4359988;32;20063;-37
2021/08/08 00:18:29;;;;;;;4.07;2.53;;;27.20;39.70;;;;;;4359788;32;20090;-37
2021/08/08 00:20:56;;;;;;;4.68;2.22;;;27.20;39.80;;;;;;4359913;32;20079;-37
2021/08/08 00:23:22;;;;;;;10.13;2.85;;;27.20;39.90;;;;;;4327451;33;20082;-37
2021/08/08 00:25:50;;;;;;;7.05;2.55;;;27.30;40.60;;;;;;4315670;33;20137;-38
2021/08/08 00:28:16;;;;;;;5.12;2.65;;;27.20;39.70;;;;;;4327474;33;20082;-37
2021/08/08 00:30:43;;;;;;;6.07;3.08;;;27.20;39.90;;;;;;4327572;33;20113;-37
2021/08/08 00:33:09;;;;;;;5.10;2.85;;;27.10;40.20;;;;;;4315184;33;20105;-37
2021/08/08 00:35:36;;;;;;;9.05;3.00;;;27.00;40.10;;;;;;4327724;33;20160;-36
2021/08/08 00:38:02;;;;;;;5.03;2.42;;;27.10;40.40;;;;;;4327420;33;20138;-38
2021/08/08 00:40:29;;;;;;;4.07;2.60;;;27.10;40.20;;;;;;4327093;33;20444;-37
2021/08/08 00:42:55;;;;;;;9.30;2.80;;;27.10;40.30;;;;;;4340797;33;20275;-38
2021/08/08 00:45:21;;;;;;;4.05;2.50;;;27.20;40.60;;;;;;4342061;33;20063;-37
2021/08/08 00:47:48;;;;;;;3.20;2.12;;;27.20;40.70;;;;;;4341953;33;20527;-38
2021/08/08 00:50:15;;;;;;;4.43;2.10;;;27.20;40.60;;;;;;4342371;33;20098;-37
2021/08/08 00:52:42;;;;;;;5.93;2.62;;;27.20;40.60;;;;;;4342201;33;20253;-37
2021/08/08 00:55:09;;;;;;;3.15;2.05;;;27.30;40.70;;;;;;4342716;32;20059;-37
2021/08/08 00:57:35;;;;;;;5.70;2.53;;;27.30;40.70;;;;;;4359156;32;20085;-37
2021/08/08 01:00:04;;;;;;;4.75;2.20;;;27.20;40.60;;;;;;4358991;32;20610;-37
2021/08/08 01:02:32;;;;;;;3.22;2.05;;;27.20;40.60;;;;;;4359086;32;20086;-37
2021/08/08 01:05:10;;;;;;;5.72;2.55;;;27.20;40.50;;;;;;4333230;32;20090;-37
2021/08/08 01:07:41;;;;;;;10.13;2.80;;;27.20;40.60;;;;;;4358927;32;20515;-37
2021/08/08 01:10:08;;;;;;;6.68;2.17;;;27.20;40.70;;;;;;4359105;32;20071;-37
2021/08/08 01:12:36;;;;;;;4.18;2.30;;;27.10;40.70;;;;;;4344946;32;20066;-37
2021/08/08 01:15:03;;;;;;;4.22;2.37;;;27.00;40.70;;;;;;4345589;32;20544;-37
2021/08/08 01:17:29;;;;;;;4.82;2.28;;;27.00;40.70;;;;;;4358657;32;20061;-36
2021/08/08 01:20:04;;;;;;;4.70;2.53;;;26.90;40.80;;;;;;4359370;32;20066;-38
2021/08/08 01:22:32;;;;;;;7.82;1.98;;;26.70;40.80;;;;;;4358863;32;20098;-36
2021/08/08 01:25:05;;;;;;;3.72;2.12;;;26.70;41.20;;;;;;4359103;32;20144;-37
2021/08/08 01:27:31;;;;;;;3.33;2.10;;;26.60;41.40;;;;;;4358774;32;20066;-37
2021/08/08 01:29:58;;;;;;;3.72;2.45;;;26.60;41.60;;;;;;4333058;32;20067;-37
2021/08/08 01:32:24;;;;;;;7.37;2.65;;;26.60;41.20;;;;;;4344850;32;20147;-36
2021/08/08 01:34:51;;;;;;;6.80;2.40;;;26.60;41.20;;;;;;4359110;32;20065;-37
2021/08/08 01:37:19;;;;;;;8.80;3.60;;;26.70;41.20;;;;;;4359000;32;21305;-37
2021/08/08 01:39:59;;;;;;;3.42;1.87;;;26.70;41.10;;;;;;4345226;32;20065;-37
2021/08/08 01:42:25;;;;;;;5.37;2.53;;;26.70;41.00;;;;;;4356459;32;20063;-37
2021/08/08 01:44:54;;;;;;;4.65;1.87;;;26.60;40.70;;;;;;4347440;32;20062;-37
2021/08/08 01:47:30;;;;;;;5.47;2.37;;;26.60;40.70;;;;;;4360162;32;20071;-38
2021/08/08 01:49:56;;;;;;;4.85;2.42;;;26.60;40.90;;;;;;4359968;32;20093;-36
2021/08/08 01:52:23;;;;;;;4.95;1.92;;;26.70;40.60;;;;;;4347294;32;20530;-37
2021/08/08 01:54:50;;;;;;;11.35;8.05;;;26.70;40.50;;;;;;4359460;32;20137;-38
2021/08/08 01:57:16;;;;;;;5.10;2.08;;;26.80;40.40;;;;;;4373086;32;20132;-37
2021/08/08 01:59:42;;;;;;;5.35;2.85;;;26.90;40.20;;;;;;4373201;32;20125;-37
2021/08/08 02:02:14;;;;;;;2.67;1.77;;;27.10;40.00;;;;;;4335152;32;20165;-37
2021/08/08 02:04:41;;;;;;;5.28;2.92;;;27.20;39.90;;;;;;4373248;32;20154;-37
2021/08/08 02:07:12;;;;;;;8.68;3.05;;;27.40;39.60;;;;;;4373568;32;20161;-37
2021/08/08 02:09:39;;;;;;;4.28;1.75;;;27.50;39.20;;;;;;4373469;32;20182;-38
2021/08/08 02:12:06;;;;;;;7.10;2.10;;;27.70;38.90;;;;;;4359224;32;20066;-38
2021/08/08 02:14:33;;;;;;;2.95;2.12;;;27.90;38.60;;;;;;4359353;32;20533;-37
2021/08/08 02:17:00;;;;;;;5.93;2.22;;;28.00;38.70;;;;;;4373320;32;20085;-37
2021/08/08 02:19:26;;;;;;;3.87;2.37;;;28.00;38.50;;;;;;4340429;33;20105;-38
2021/08/08 02:21:53;;;;;;;5.62;1.90;;;28.20;37.90;;;;;;4340714;33;20098;-38
2021/08/08 02:24:19;;;;;;;3.60;2.10;;;28.40;37.60;;;;;;4328487;33;20071;-38
2021/08/08 02:26:46;;;;;;;6.45;2.25;;;28.50;37.50;;;;;;4340898;33;20146;-38
2021/08/08 02:29:12;;;;;;;6.93;2.08;;;28.60;37.60;;;;;;4340904;33;20087;-36
2021/08/08 02:31:40;;;;;;;6.25;2.30;;;28.80;37.80;;;;;;4340507;33;20141;-38
2021/08/08 02:34:07;;;;;;;5.93;3.17;;;29.00;37.40;;;;;;4340609;33;20090;-38
2021/08/08 02:36:33;;;;;;;8.27;2.53;;;29.20;36.80;;;;;;4340303;33;20244;-37
2021/08/08 02:39:00;;;;;;;4.22;1.95;;;29.60;36.30;;;;;;4340877;33;20098;-37
2021/08/08 02:41:26;;;;;;;5.18;1.77;;;29.90;36.40;;;;;;4336300;33;20079;-37
2021/08/08 02:43:56;;;;;;;8.98;1.58;;;30.10;35.80;;;;;;4326423;33;20099;-37
2021/08/08 02:46:23;;;;;;;5.78;1.70;;;30.30;35.80;;;;;;4326244;33;20075;-36
2021/08/08 02:48:49;;;;;;;4.30;1.75;;;30.50;35.60;;;;;;4325906;33;20212;-37
2021/08/08 02:51:16;;;;;;;5.43;1.90;;;30.80;35.30;;;;;;4351629;32;20082;-37
2021/08/08 02:53:43;;;;;;;2.58;1.80;;;31.10;35.00;;;;;;4358136;32;20074;-37
2021/08/08 02:56:09;;;;;;;3.20;1.80;;;31.50;35.00;;;;;;4331910;32;20088;-37
2021/08/08 02:58:36;;;;;;;4.85;1.90;;;31.80;34.30;;;;;;4357947;32;20058;-37
2021/08/08 03:01:04;;;;;;;3.58;1.83;;;32.20;34.10;;;;;;4357589;32;20063;-38
2021/08/08 03:03:34;;;;;;;6.80;1.73;;;32.40;33.80;;;;;;4357987;32;20162;-38
2021/08/08 03:06:01;;;;;;;5.87;1.73;;;32.80;33.30;;;;;;4344001;32;20151;-38
2021/08/08 03:08:27;;;;;;;9.98;1.58;;;33.10;33.00;;;;;;4358235;32;20483;-37
2021/08/08 03:10:54;;;;;;;7.05;1.87;;;33.40;32.60;;;;;;4357376;32;20075;-38
2021/08/08 03:13:20;;;;;;;3.90;1.75;;;33.70;32.40;;;;;;4358105;32;20117;-38
2021/08/08 03:15:46;;;;;;;5.37;2.20;;;33.90;31.90;;;;;;4357991;32;20130;-38
2021/08/08 03:18:13;;;;;;;3.95;1.40;;;34.20;31.50;;;;;;4357854;32;20598;-37
2021/08/08 03:20:39;;;;;;;6.18;1.87;;;34.50;31.60;;;;;;4357764;32;20054;-37
2021/08/08 03:23:06;;;;;;;4.82;1.90;;;35.00;31.60;;;;;;4357763;32;20101;-38
2021/08/08 03:25:32;;;;;;;6.40;1.62;;;35.40;31.10;;;;;;4357430;32;20090;-38
2021/08/08 03:27:58;;;;;;;4.62;1.42;;;35.90;30.60;;;;;;4344241;32;20077;-38
2021/08/08 03:30:25;;;;;;;5.43;1.30;;;36.40;30.00;;;;;;4357678;32;20086;-37
2021/08/08 03:32:51;;;;;;;1.52;0.85;;;36.80;29.40;;;;;;4357733;32;20603;-38
2021/08/08 03:35:18;;;;;;;7.05;1.15;;;37.20;28.40;;;;;;4343937;32;20129;-37
2021/08/08 03:37:44;;;;;;;4.30;1.10;;;37.70;28.30;;;;;;4343459;32;20066;-37
2021/08/08 03:40:12;;;;;;;4.15;1.20;;;38.10;28.20;;;;;;4357317;32;20502;-37
2021/08/08 03:42:38;;;;;;;7.12;1.00;;;38.40;27.30;;;;;;4369756;32;20104;-38
2021/08/08 03:45:05;;;;;;;2.85;1.10;;;38.80;26.90;;;;;;4372610;32;20473;-38
2021/08/08 03:47:35;;;;;;;5.68;1.15;;;39.00;26.30;;;;;;4374443;32;20075;-38
2021/08/08 03:50:01;;;;;;;2.70;0.70;;;39.40;26.00;;;;;;4375463;32;20461;-38
2021/08/08 03:52:28;;;;;;;3.12;1.00;;;39.60;25.00;;;;;;4375344;32;20572;-38
2021/08/08 03:54:54;;;;;;;5.47;0.90;;;39.80;25.50;;;;;;4374897;32;20123;-38
2021/08/08 03:57:20;;;;;;;3.30;0.93;;;40.00;25.30;;;;;;4374828;32;20090;-38
2021/08/08 03:59:47;;;;;;;1.83;0.77;;;40.10;25.50;;;;;;4375313;32;20086;-38
2021/08/08 04:02:13;;;;;;;5.65;0.90;;;40.20;24.60;;;;;;4375301;32;20077;-38
2021/08/08 04:04:40;;;;;;;2.10;0.70;;;40.30;24.70;;;;;;4361080;32;20054;-37
2021/08/08 04:07:06;;;;;;;5.80;1.25;;;40.40;24.70;;;;;;4374974;32;20066;-37
2021/08/08 04:09:32;;;;;;;2.87;0.80;;;40.50;24.60;;;;;;4374730;32;20054;-37
2021/08/08 04:11:59;;;;;;;3.70;0.73;;;40.70;24.30;;;;;;4375045;32;20073;-37
2021/08/08 04:14:25;;;;;;;4.80;0.60;;;40.90;24.20;;;;;;4374744;32;20061;-37
2021/08/08 04:16:52;;;;;;;2.20;0.60;;;41.10;23.90;;;;;;4374783;32;20115;-37
2021/08/08 04:19:18;;;;;;;2.40;0.80;;;41.40;23.60;;;;;;4374536;32;20501;-38
2021/08/08 04:21:44;;;;;;;1.48;0.70;;;41.70;23.60;;;;;;4374596;32;20163;-38
2021/08/08 04:24:11;;;;;;;5.43;0.80;;;41.90;23.10;;;;;;4374454;32;20058;-39
2021/08/08 04:26:37;;;;;;;7.20;0.80;;;42.20;23.60;;;;;;4374632;32;20069;-39
2021/08/08 04:29:03;;;;;;;4.47;1.52;;;42.30;22.60;;;;;;4374968;32;20081;-38
2021/08/08 04:31:30;;;;;;;1.80;0.60;;;42.50;22.40;;;;;;4374768;32;20066;-39
2021/08/08 04:33:56;;;;;;;1.20;0.60;;;42.60;22.20;;;;;;4360724;32;20158;-39
2021/08/08 04:36:23;;;;;;;5.25;0.60;;;42.60;21.90;;;;;;4374558;32;20519;-39
2021/08/08 04:38:52;;;;;;;2.03;1.27;;;42.60;21.80;;;;;;4374220;32;20577;-38
2021/08/08 04:41:18;;;;;;;2.17;0.73;;;42.50;22.40;;;;;;4370323;32;20601;-38
2021/08/08 04:43:45;;;;;;;3.92;0.65;;;42.40;22.30;;;;;;4345918;32;20082;-38
2021/08/08 04:46:11;;;;;;;2.25;0.88;;;42.40;22.50;;;;;;4359160;32;20147;-38
2021/08/08 04:48:38;;;;;;;1.48;0.85;;;42.30;22.50;;;;;;4359395;32;20483;-39
2021/08/08 04:51:04;;;;;;;5.07;0.70;;;42.40;22.60;;;;;;4359682;32;20062;-38
2021/08/08 04:53:30;;;;;;;7.10;0.95;;;42.40;22.50;;;;;;4312263;33;20159;-38
2021/08/08 04:55:57;;;;;;;1.40;0.70;;;42.50;22.90;;;;;;4312172;33;20578;-38
2021/08/08 04:58:23;;;;;;;4.37;0.70;;;42.70;22.60;;;;;;4311988;33;20495;-38
2021/08/08 05:00:50;;;;;;;1.42;0.80;;;42.90;22.60;;;;;;4312394;33;20647;-38
2021/08/08 05:03:16;;;;;;;2.60;0.70;;;43.20;22.50;;;;;;4312151;33;20578;-38
2021/08/08 05:05:42;;;;;;;4.75;1.10;;;43.50;22.10;;;;;;4312093;33;20562;-38
2021/08/08 05:08:09;;;;;;;5.53;0.70;;;43.80;22.00;;;;;;4312452;33;20068;-38
2021/08/08 05:10:36;;;;;;;5.03;0.70;;;43.90;21.60;;;;;;4312264;33;20087;-38
2021/08/08 05:13:02;;;;;;;0.93;0.52;;;44.00;21.50;;;;;;4312523;33;20083;-38
2021/08/08 05:15:28;;;;;;;2.55;0.80;;;44.00;20.90;;;;;;4312207;33;20540;-39
2021/08/08 05:17:55;;;;;;;4.62;0.60;;;43.80;20.80;;;;;;4312255;33;20229;-39
2021/08/08 05:20:21;;;;;;;2.05;0.50;;;43.80;20.70;;;;;;4300087;33;20097;-39
2021/08/08 05:22:48;;;;;;;1.40;0.60;;;43.70;20.80;;;;;;4312383;33;20114;-39
2021/08/08 05:25:14;;;;;;;4.80;0.70;;;43.60;21.00;;;;;;4337547;33;20074;-38
2021/08/08 05:27:40;;;;;;;3.42;0.60;;;43.60;20.70;;;;;;4343919;33;20109;-39
2021/08/08 05:30:09;;;;;;;1.35;0.60;;;43.50;20.60;;;;;;4344634;33;20260;-38
2021/08/08 05:32:36;;;;;;;6.07;0.60;;;43.50;20.30;;;;;;4330327;33;20078;-39
2021/08/08 05:35:03;;;;;;;0.85;0.50;;;43.50;20.20;;;;;;4343675;33;20152;-39
2021/08/08 05:37:30;;;;;;;9.82;0.90;;;43.40;20.40;;;;;;4343870;33;20071;-38
2021/08/08 05:39:59;;;;;;;1.30;0.60;;;43.20;20.40;;;;;;4343503;33;20510;-38
2021/08/08 05:42:26;;;;;;;2.87;0.60;;;43.00;20.60;;;;;;4354170;32;20058;-38
2021/08/08 05:44:52;;;;;;;3.25;0.50;;;42.90;20.60;;;;;;4358797;32;20086;-39
2021/08/08 05:47:18;;;;;;;4.43;0.60;;;42.90;20.40;;;;;;4358716;32;20074;-39
2021/08/08 05:49:45;;;;;;;5.37;0.60;;;43.00;20.30;;;;;;4358474;32;20586;-39
2021/08/08 05:52:12;;;;;;;2.97;0.50;;;43.20;20.20;;;;;;4358624;32;20090;-39
2021/08/08 05:54:39;;;;;;;1.58;0.50;;;43.30;20.20;;;;;;4358196;32;20523;-39
2021/08/08 05:57:08;;;;;;;1.00;0.60;;;43.40;20.30;;;;;;4358677;32;20148;-38
2021/08/08 05:59:34;;;;;;;1.33;0.50;;;43.50;20.30;;;;;;4358563;32;20074;-39
2021/08/08 06:02:01;;;;;;;6.10;0.70;;;43.60;20.30;;;;;;4358254;32;20255;-39
2021/08/08 06:04:27;;;;;;;4.20;0.60;;;43.50;20.30;;;;;;4358391;32;20098;-39
2021/08/08 06:06:54;;;;;;;3.85;0.43;;;43.60;20.40;;;;;;4358434;32;20148;-39
2021/08/08 06:09:20;;;;;;;3.62;0.95;;;43.60;20.40;;;;;;4357792;32;20078;-39
2021/08/08 06:11:47;;;;;;;4.50;0.80;;;43.70;20.40;;;;;;4372752;32;20109;-39
2021/08/08 06:14:13;;;;;;;2.30;0.50;;;43.80;20.60;;;;;;4372837;32;20555;-39
2021/08/08 06:16:39;;;;;;;3.95;0.70;;;43.90;20.40;;;;;;4373312;32;20063;-39
2021/08/08 06:19:06;;;;;;;4.03;0.60;;;43.80;20.40;;;;;;4373664;32;20094;-39
2021/08/08 06:21:32;;;;;;;4.43;0.50;;;43.70;20.50;;;;;;4372773;32;20532;-39
2021/08/08 06:23:59;;;;;;;5.45;0.60;;;43.50;20.50;;;;;;4373360;32;20074;-40
2021/08/08 06:26:26;;;;;;;2.17;0.50;;;43.70;20.70;;;;;;4373109;32;20080;-40
2021/08/08 06:28:55;;;;;;;2.37;0.50;;;43.80;20.60;;;;;;4359086;32;20081;-39
2021/08/08 06:31:21;;;;;;;1.37;0.70;;;43.60;20.70;;;;;;4372698;32;20139;-41
2021/08/08 06:33:48;;;;;;;5.40;0.60;;;43.60;20.70;;;;;;4372536;32;20163;-40
2021/08/08 06:36:14;;;;;;;2.75;0.57;;;43.70;20.70;;;;;;4373332;32;20715;-40
2021/08/08 06:38:41;;;;;;;4.28;0.60;;;43.90;20.80;;;;;;4373343;32;20085;-40
2021/08/08 06:41:07;;;;;;;3.20;0.50;;;44.00;20.70;;;;;;4356843;32;20062;-40
2021/08/08 06:43:33;;;;;;;3.05;0.47;;;44.20;20.60;;;;;;4358172;32;20071;-39
2021/08/08 06:46:00;;;;;;;2.55;0.50;;;44.30;20.60;;;;;;4358279;32;20124;-40
2021/08/08 06:48:26;;;;;;;2.42;0.50;;;44.30;20.60;;;;;;4358058;32;20070;-38
2021/08/08 06:50:55;;;;;;;1.02;0.40;;;44.40;20.30;;;;;;4358279;32;20084;-39
2021/08/08 06:53:21;;;;;;;4.53;0.98;;;44.50;20.30;;;;;;4358040;32;20054;-38
2021/08/08 06:55:47;;;;;;;2.87;0.50;;;44.50;20.50;;;;;;4357671;32;20601;-38
2021/08/08 06:58:14;;;;;;;2.85;0.57;;;44.50;20.30;;;;;;4358302;32;20077;-38
2021/08/08 07:00:40;;;;;;;2.42;0.50;;;44.30;20.40;;;;;;4357850;32;20139;-37
2021/08/08 07:03:07;;;;;;;3.25;0.50;;;44.10;20.60;;;;;;4357730;32;20070;-39
2021/08/08 07:05:33;;;;;;;1.90;0.50;;;44.00;20.50;;;;;;4357615;32;20203;-37
2021/08/08 07:07:59;;;;;;;2.05;0.45;;;43.90;20.70;;;;;;4357718;32;20586;-38
2021/08/08 07:10:26;;;;;;;4.18;1.75;;;43.80;20.70;;;;;;4343355;32;20081;-39
2021/08/08 07:12:52;;;;;;;1.33;0.70;;;43.70;20.80;;;;;;4357743;32;20059;-38
2021/08/08 07:15:19;;;;;;;0.60;0.50;;;43.60;20.80;;;;;;4357694;32;20066;-38
2021/08/08 07:17:45;;;;;;;2.50;0.50;;;43.70;20.70;;;;;;4358015;32;20152;-37
2021/08/08 07:20:12;;;;;;;2.17;0.60;;;43.70;20.70;;;;;;4358359;32;20069;-38
2021/08/08 07:22:39;;;;;;;2.53;0.52;;;43.70;20.20;;;;;;4361205;32;20066;-39
2021/08/08 07:25:06;;;;;;;1.95;0.50;;;43.60;20.50;;;;;;4360885;32;20069;-39
2021/08/08 07:27:33;;;;;;;3.53;0.60;;;43.40;20.50;;;;;;4346539;32;20163;-38
2021/08/08 07:29:59;;;;;;;4.05;0.50;;;43.20;20.70;;;;;;4360351;32;20486;-37
2021/08/08 07:32:26;;;;;;;3.42;0.50;;;43.20;20.60;;;;;;4360027;32;20518;-38
2021/08/08 07:34:53;;;;;;;1.55;0.55;;;43.10;20.40;;;;;;4360214;32;20297;-37
2021/08/08 07:37:21;;;;;;;1.90;0.60;;;43.00;20.30;;;;;;4360067;32;20157;-39
2021/08/08 07:39:48;;;;;;;2.12;0.70;;;42.90;21.20;;;;;;4359901;32;20094;-40
2021/08/08 07:42:15;;;;;;;3.55;0.60;;;42.80;20.60;;;;;;4359982;32;20550;-38
2021/08/08 07:44:41;;;;;;;4.97;0.60;;;42.90;20.80;;;;;;4360002;32;20059;-39
2021/08/08 07:47:08;;;;;;;1.87;0.50;;;42.80;20.80;;;;;;4346467;32;20070;-38
2021/08/08 07:49:34;;;;;;;2.22;0.80;;;42.80;20.70;;;;;;4360300;32;20066;-40
2021/08/08 07:52:01;;;;;;;3.70;0.40;;;42.70;20.90;;;;;;4360153;32;20167;-38
2021/08/08 07:54:27;;;;;;;3.95;0.70;;;42.60;20.90;;;;;;4359966;32;20109;-39
2021/08/08 07:56:53;;;;;;;4.97;0.60;;;42.60;21.00;;;;;;4360107;32;20166;-38
2021/08/08 07:59:20;;;;;;;2.05;0.50;;;42.70;21.00;;;;;;4359858;32;20089;-38
2021/08/08 08:01:47;;;;;;;1.95;0.40;;;42.90;20.60;;;;;;4359983;32;20059;-39
2021/08/08 08:04:13;;;;;;;3.92;0.65;;;43.00;20.50;;;;;;4359827;32;20481;-38
2021/08/08 08:06:40;;;;;;;1.67;0.60;;;43.00;20.70;;;;;;4359688;32;20151;-37
2021/08/08 08:09:06;;;;;;;4.10;0.50;;;43.00;20.70;;;;;;4359614;32;21052;-39
2021/08/08 08:11:33;;;;;;;2.47;0.50;;;43.00;20.80;;;;;;4360012;32;20233;-40
2021/08/08 08:13:59;;;;;;;1.30;0.50;;;43.00;20.90;;;;;;4360114;32;20078;-41
2021/08/08 08:16:25;;;;;;;2.67;0.60;;;43.00;20.90;;;;;;4359919;32;20054;-40
2021/08/08 08:18:52;;;;;;;2.15;0.70;;;43.00;20.70;;;;;;4359816;32;20560;-40
2021/08/08 08:21:18;;;;;;;2.22;0.40;;;43.20;20.50;;;;;;4359965;32;20093;-40
2021/08/08 08:23:44;;;;;;;1.87;0.40;;;43.20;19.90;;;;;;4359610;32;20150;-40
2021/08/08 08:26:11;;;;;;;1.98;0.40;;;43.20;19.80;;;;;;4345587;32;20463;-39
2021/08/08 08:28:37;;;;;;;4.20;0.40;;;43.20;19.50;;;;;;4359449;32;20505;-38
2021/08/08 08:31:04;;;;;;;3.53;0.40;;;43.20;19.70;;;;;;4359647;32;20190;-38
2021/08/08 08:33:30;;;;;;;5.35;0.50;;;43.10;19.70;;;;;;4358929;32;20146;-39
2021/08/08 08:35:56;;;;;;;5.53;0.60;;;43.10;20.00;;;;;;4359547;32;20093;-39
2021/08/08 08:38:23;;;;;;;1.95;0.60;;;43.10;20.20;;;;;;4359123;32;20066;-38
2021/08/08 08:40:49;;;;;;;1.62;0.50;;;43.00;20.40;;;;;;4359499;32;20168;-40
2021/08/08 08:43:16;;;;;;;2.47;0.50;;;42.80;20.90;;;;;;4345811;32;20145;-40
2021/08/08 08:45:44;;;;;;;1.27;0.60;;;42.80;20.50;;;;;;4357763;32;20146;-39
2021/08/08 08:48:11;;;;;;;0.88;0.40;;;42.80;20.30;;;;;;4357587;32;20548;-39
2021/08/08 08:50:37;;;;;;;1.65;0.50;;;42.70;20.40;;;;;;4357675;32;20105;-38
2021/08/08 08:53:04;;;;;;;0.60;0.50;;;42.80;20.70;;;;;;4357930;32;20074;-39
2021/08/08 08:55:30;;;;;;;3.50;0.60;;;42.70;20.50;;;;;;4357860;32;20082;-39
2021/08/08 08:57:57;;;;;;;4.85;0.40;;;42.60;20.50;;;;;;4359236;32;20059;-39
2021/08/08 09:00:23;;;;;;;4.57;0.70;;;42.60;20.50;;;;;;4345291;32;20084;-39
2021/08/08 09:02:51;;;;;;;3.12;0.57;;;42.50;20.60;;;;;;4358847;32;20059;-40
2021/08/08 09:05:19;;;;;;;4.18;0.40;;;42.40;20.60;;;;;;4357738;32;20458;-39
2021/08/08 09:07:46;;;;;;;0.82;0.50;;;42.30;20.70;;;;;;4357809;32;20465;-38
2021/08/08 09:10:13;;;;;;;2.37;0.50;;;42.30;20.70;;;;;;4364424;32;20066;-40
2021/08/08 09:12:39;;;;;;;5.07;0.57;;;42.20;20.70;;;;;;4374324;32;20505;-39
2021/08/08 09:15:07;;;;;;;2.50;0.50;;;42.20;20.90;;;;;;4359826;32;20057;-39
2021/08/08 09:17:38;;;;;;;2.85;0.65;;;42.20;20.90;;;;;;4373772;32;20460;-39
2021/08/08 09:20:10;;;;;;;1.45;0.57;;;42.40;20.80;;;;;;4359693;32;20077;-38
2021/08/08 09:22:37;;;;;;;1.95;0.60;;;42.40;20.80;;;;;;4374027;32;20070;-38
2021/08/08 09:25:04;;;;;;;1.70;0.60;;;42.40;20.90;;;;;;4373599;32;20081;-38
2021/08/08 09:27:37;;;;;;;2.00;0.52;;;42.60;21.00;;;;;;4373812;32;20153;-38
2021/08/08 09:30:16;;;;;;;3.25;0.43;;;42.80;20.80;;;;;;4373843;32;20167;-39
2021/08/08 09:32:42;;;;;;;1.30;0.90;;;43.10;20.70;;;;;;4373719;32;20154;-41
2021/08/08 09:35:13;;;;;;;3.97;0.50;;;43.10;20.70;;;;;;4359721;32;20049;-38
2021/08/08 09:37:40;;;;;;;1.00;0.52;;;43.10;20.80;;;;;;4373394;32;20542;-39
2021/08/08 09:40:14;;;;;;;2.12;0.50;;;43.10;20.80;;;;;;4347678;32;20077;-39
2021/08/08 09:42:45;;;;;;;1.37;0.60;;;43.00;20.80;;;;;;4361029;32;20070;-39
2021/08/08 09:45:14;;;;;;;2.87;0.50;;;43.00;21.00;;;;;;4358441;32;20562;-40
2021/08/08 09:47:49;;;;;;;3.33;0.60;;;42.90;21.00;;;;;;4358579;32;20079;-38
2021/08/08 09:50:21;;;;;;;5.07;0.93;;;42.90;21.10;;;;;;4358774;32;20077;-38
2021/08/08 09:52:53;;;;;;;3.28;0.55;;;43.00;21.60;;;;;;4358636;32;20066;-39
2021/08/08 09:55:40;;;;;;;2.12;0.80;;;43.10;21.10;;;;;;4359078;32;20051;-39
2021/08/08 09:58:22;;;;;;;4.12;0.50;;;43.10;21.00;;;;;;4358183;32;20440;-37
2021/08/08 10:00:57;;;;;;;5.93;0.60;;;43.30;21.10;;;;;;4345423;32;20127;-38
2021/08/08 10:03:23;;;;;;;2.78;0.50;;;43.30;21.00;;;;;;4358544;32;20591;-38
2021/08/08 10:05:50;;;;;;;2.28;0.60;;;43.40;20.90;;;;;;4358229;32;20545;-39
2021/08/08 10:08:19;;;;;;;2.00;0.60;;;43.40;20.80;;;;;;4319912;32;20117;-38
2021/08/08 10:10:47;;;;;;;9.60;0.90;;;43.30;20.90;;;;;;4358199;32;20085;-38
2021/08/08 10:13:43;;;;;;;0.90;0.60;;;43.20;21.00;;;;;;4358456;32;20101;-39
2021/08/08 10:16:14;;;;;;;2.92;0.70;;;43.40;21.00;;;;;;4358270;32;20081;-38
2021/08/08 10:19:02;;;;;;;5.60;0.68;;;43.40;21.00;;;;;;4344168;32;20605;-39
2021/08/08 10:21:33;;;;;;;2.17;0.50;;;43.40;20.90;;;;;;4358357;32;20074;-38
2021/08/08 10:24:06;;;;;;;0.93;0.70;;;43.20;20.70;;;;;;4358074;32;20470;-39
2021/08/08 10:26:32;;;;;;;2.75;0.98;;;43.00;21.00;;;;;;4357864;32;20462;-38
2021/08/08 10:28:59;;;;;;;3.95;0.95;;;42.70;21.00;;;;;;4357983;32;20058;-38
2021/08/08 10:31:27;;;;;;;2.25;0.60;;;42.60;21.10;;;;;;4344027;32;20089;-37
2021/08/08 10:33:55;;;;;;;4.32;0.60;;;42.60;21.10;;;;;;4358356;32;20082;-39
2021/08/08 10:36:30;;;;;;;2.03;0.50;;;42.60;21.10;;;;;;4358537;32;20147;-39
2021/08/08 10:39:12;;;;;;;3.42;0.90;;;42.80;21.20;;;;;;4344711;32;20077;-39
2021/08/08 10:41:39;;;;;;;3.75;0.60;;;42.80;21.30;;;;;;4358096;32;20070;-40
2021/08/08 10:44:11;;;;;;;3.35;0.60;;;42.80;21.20;;;;;;4356628;32;20073;-38
2021/08/08 10:46:51;;;;;;;5.12;0.65;;;42.70;21.40;;;;;;4357929;32;20063;-38
2021/08/08 10:49:34;;;;;;;2.97;0.60;;;42.50;21.40;;;;;;4358012;32;20074;-38
2021/08/08 10:52:06;;;;;;;2.08;0.55;;;42.50;21.50;;;;;;4356078;32;20077;-38
2021/08/08 10:54:49;;;;;;;2.17;0.60;;;42.50;21.30;;;;;;4358221;32;20158;-39
2021/08/08 10:57:19;;;;;;;6.70;1.17;;;42.50;21.70;;;;;;4360553;32;20150;-39
2021/08/08 10:59:54;;;;;;;3.72;1.05;;;42.40;21.70;;;;;;4360818;32;20087;-39
2021/08/08 11:02:28;;;;;;;2.22;0.70;;;42.30;21.80;;;;;;4359583;32;20074;-38
2021/08/08 11:04:55;;;;;;;5.62;0.90;;;42.30;21.80;;;;;;4359826;32;20521;-38
2021/08/08 11:07:29;;;;;;;5.43;0.70;;;42.30;21.70;;;;;;4361394;32;20077;-38
2021/08/08 11:09:55;;;;;;;5.50;0.70;;;42.30;21.90;;;;;;4364774;32;20059;-39
2021/08/08 11:12:41;;;;;;;5.90;0.60;;;42.20;21.90;;;;;;4376091;32;20050;-38
2021/08/08 11:15:10;;;;;;;6.75;0.85;;;42.20;22.10;;;;;;4375997;32;20051;-37
2021/08/08 11:17:37;;;;;;;3.87;0.68;;;42.10;21.90;;;;;;4376082;32;20151;-38
2021/08/08 11:20:05;;;;;;;1.45;0.50;;;42.10;21.60;;;;;;4375499;32;20526;-38
2021/08/08 11:22:31;;;;;;;5.32;0.60;;;41.90;22.50;;;;;;4375151;32;20097;-39
2021/08/08 11:25:03;;;;;;;1.87;0.80;;;41.80;22.20;;;;;;4375722;32;20517;-39
2021/08/08 11:27:40;;;;;;;3.25;0.60;;;41.60;22.40;;;;;;4375546;32;20510;-39
2021/08/08 11:30:10;;;;;;;7.20;0.70;;;41.40;22.20;;;;;;4375762;32;20074;-39
2021/08/08 11:32:36;;;;;;;5.03;0.70;;;41.20;22.60;;;;;;4361890;32;20055;-39
2021/08/08 11:35:11;;;;;;;2.65;0.60;;;41.10;22.70;;;;;;4375505;32;20062;-38
2021/08/08 11:37:40;;;;;;;0.90;0.65;;;41.00;22.60;;;;;;4375541;32;20498;-38
2021/08/08 11:40:27;;;;;;;4.05;0.60;;;41.10;22.40;;;;;;4375147;32;20477;-40
2021/08/08 11:43:07;;;;;;;3.40;0.70;;;41.20;22.40;;;;;;4361700;32;20140;-39
2021/08/08 11:45:46;;;;;;;4.25;0.70;;;41.20;22.00;;;;;;4360358;32;20117;-39
2021/08/08 11:48:18;;;;;;;1.33;0.70;;;41.30;22.10;;;;;;4360419;32;20078;-37
2021/08/08 11:50:46;;;;;;;0.95;0.62;;;41.30;22.60;;;;;;4334392;32;20177;-39
2021/08/08 11:53:13;;;;;;;2.62;1.35;;;41.40;21.90;;;;;;4346918;32;20063;-38
2021/08/08 11:55:39;;;;;;;3.33;0.80;;;41.40;22.00;;;;;;4360117;32;20539;-39
2021/08/08 11:58:10;;;;;;;3.65;0.90;;;41.30;22.60;;;;;;4360114;32;20667;-38
2021/08/08 12:00:40;;;;;;;1.05;0.62;;;41.10;23.00;;;;;;4360102;32;20068;-39
2021/08/08 12:03:08;;;;;;;3.40;0.60;;;41.10;22.90;;;;;;4360081;32;20076;-39
2021/08/08 12:05:36;;;;;;;0.60;0.57;;;40.90;22.70;;;;;;4360294;32;20082;-38
2021/08/08 12:08:07;;;;;;;5.80;0.65;;;41.00;22.50;;;;;;4333063;32;20692;-37
2021/08/08 12:10:38;;;;;;;5.22;0.62;;;41.00;23.00;;;;;;4333722;32;20066;-39
2021/08/08 12:13:15;;;;;;;1.62;0.57;;;41.00;23.10;;;;;;4359777;32;20463;-39
2021/08/08 12:15:42;;;;;;;2.25;0.60;;;41.00;23.00;;;;;;4360129;32;20066;-39
2021/08/08 12:18:08;;;;;;;1.98;0.65;;;41.00;23.10;;;;;;4359837;32;20070;-39
2021/08/08 12:20:36;;;;;;;2.75;0.80;;;40.90;23.00;;;;;;4359757;32;20086;-39
2021/08/08 12:23:12;;;;;;;3.30;0.62;;;40.90;23.20;;;;;;4359847;32;20503;-40
2021/08/08 12:25:40;;;;;;;2.80;0.68;;;40.80;23.30;;;;;;4359772;32;20063;-39
2021/08/08 12:28:07;;;;;;;2.65;0.62;;;40.80;22.90;;;;;;4333855;32;20067;-38
2021/08/08 12:30:33;;;;;;;6.53;0.70;;;40.70;22.90;;;;;;4359197;32;20481;-38
2021/08/08 12:33:10;;;;;;;4.65;1.00;;;40.80;23.10;;;;;;4327455;33;20530;-40
2021/08/08 12:35:43;;;;;;;2.62;0.70;;;40.90;23.00;;;;;;4327603;33;20074;-38
2021/08/08 12:38:15;;;;;;;2.97;0.88;;;41.00;23.20;;;;;;4327724;33;20172;-39
2021/08/08 12:40:52;;;;;;;1.75;0.60;;;41.00;23.20;;;;;;4327609;33;20099;-38
2021/08/08 12:43:30;;;;;;;5.35;1.10;;;41.00;22.90;;;;;;4342052;33;20160;-39
2021/08/08 12:45:56;;;;;;;2.55;0.70;;;40.90;23.10;;;;;;4341943;33;20105;-39
2021/08/08 12:48:30;;;;;;;3.03;0.70;;;40.70;23.10;;;;;;4342013;33;20546;-40
2021/08/08 12:50:56;;;;;;;2.12;0.60;;;40.70;22.90;;;;;;4342072;33;20075;-39